Blackhawk Village, Iowa
Current Conditions -  °F | °C
As of 9:12 PM on Friday 24 Oct 2014 (Local Time) from KALO Reporting Station
Moderate Fog Moderate Fog  
Wind Chill: 56°   Ceiling: 400
Heat Index: 56°   Visibility: 0.25mi
Dew Point: 56°   Wind: 5mph
Humidity: 100%   Direction: 200°SSW
Pressure: 29.92"   Gusts: NA
Location:  42.5035°N, 92.4936°W
Report Text: KALO 250212Z 20004KT 1/4SM R12/2600V4500FT FG OVC004 13/13 A2992 RMK AO2 T01330133
Loading
Personal Weather Stations






























Interactive Weather Map
Tropical Storm Tracking
New forecast layout! Learn more

10-Day Weather Forecast

Advertisements
Track Severe Weather on mobile